createdAt,value
2019-03-28T00:01:38.749Z,53.40
2019-03-28T00:04:07.867Z,52.80
2019-03-28T00:06:36.839Z,53.60
2019-03-28T00:09:08.166Z,53.30
2019-03-28T00:11:37.934Z,53.80
2019-03-28T00:14:10.596Z,54.10
2019-03-28T00:16:42.071Z,54.00
2019-03-28T00:19:12.634Z,53.80
2019-03-28T00:21:41.756Z,53.60
2019-03-28T00:24:24.165Z,53.10
2019-03-28T00:26:53.543Z,53.60
2019-03-28T00:29:24.395Z,53.80
2019-03-28T00:31:53.674Z,53.50
2019-03-28T00:34:24.242Z,54.20
2019-03-28T00:36:53.583Z,54.20
2019-03-28T00:39:22.733Z,54.40
2019-03-28T00:41:54.494Z,54.30
2019-03-28T00:44:25.308Z,53.80
2019-03-28T00:46:55.902Z,54.70
2019-03-28T00:49:25.015Z,54.20
2019-03-28T00:51:54.381Z,54.20
2019-03-28T00:54:23.846Z,54.00
2019-03-28T00:56:54.764Z,54.30
2019-03-28T00:59:24.308Z,54.40
2019-03-28T01:01:53.643Z,54.80
2019-03-28T01:04:24.041Z,54.20
2019-03-28T01:06:52.914Z,55.30
2019-03-28T01:09:22.805Z,55.10
2019-03-28T01:11:51.495Z,55.50
2019-03-28T01:14:21.381Z,56.10
2019-03-28T01:16:50.141Z,56.40
2019-03-28T01:19:19.022Z,56.50
2019-03-28T01:21:47.690Z,56.40
2019-03-28T01:24:16.612Z,56.60
2019-03-28T01:26:56.653Z,56.90
2019-03-28T01:29:16.254Z,57.70
2019-03-28T01:31:44.915Z,59.30
2019-03-28T01:34:13.630Z,58.40
2019-03-28T01:36:42.499Z,60.60
2019-03-28T01:39:11.166Z,60.00
2019-03-28T01:41:39.877Z,60.50
2019-03-28T01:44:09.094Z,60.30
2019-03-28T01:46:38.002Z,60.60
2019-03-28T01:49:06.676Z,61.40
2019-03-28T01:51:35.573Z,60.50
2019-03-28T01:54:04.705Z,61.30
2019-03-28T01:56:33.390Z,60.80
2019-03-28T01:59:02.361Z,60.60
2019-03-28T02:01:31.248Z,61.00
2019-03-28T02:03:59.906Z,62.00
2019-03-28T02:06:28.594Z,62.00
2019-03-28T02:08:57.484Z,62.50
2019-03-28T02:11:26.319Z,62.30
2019-03-28T02:13:55.042Z,62.80
2019-03-28T02:16:27.692Z,64.00
2019-03-28T02:18:56.574Z,64.10
2019-03-28T02:21:25.998Z,64.70
2019-03-28T02:23:56.010Z,64.10
2019-03-28T02:26:24.915Z,64.80
2019-03-28T02:28:53.738Z,64.70
2019-03-28T02:31:22.594Z,65.90
2019-03-28T02:33:51.685Z,67.50
2019-03-28T02:36:20.369Z,68.10
2019-03-28T02:38:49.069Z,69.20
2019-03-28T02:41:17.962Z,70.00
2019-03-28T02:43:46.627Z,69.50
2019-03-28T02:46:15.454Z,71.10
2019-03-28T02:48:44.184Z,70.50
2019-03-28T02:51:13.205Z,70.00
2019-03-28T02:53:41.893Z,71.00
2019-03-28T02:56:10.866Z,70.30
2019-03-28T02:58:39.631Z,71.00
2019-03-28T03:01:08.513Z,71.80
2019-03-28T03:03:37.195Z,71.00
2019-03-28T03:06:07.764Z,71.00
2019-03-28T03:08:37.469Z,71.10
2019-03-28T03:11:06.161Z,71.70
2019-03-28T03:13:35.035Z,72.00
2019-03-28T03:16:03.708Z,71.90
2019-03-28T03:18:33.736Z,73.00
2019-03-28T03:21:06.650Z,72.40
2019-03-28T03:23:35.404Z,73.10
2019-03-28T03:26:04.099Z,72.90
2019-03-28T03:28:32.895Z,71.60
2019-03-28T03:31:01.572Z,74.00
2019-03-28T03:33:30.495Z,74.10
2019-03-28T03:35:59.367Z,74.40
2019-03-28T03:38:28.103Z,73.40
2019-03-28T03:40:56.962Z,73.50
2019-03-28T03:43:25.835Z,73.40
2019-03-28T03:45:54.549Z,73.50
2019-03-28T03:48:23.448Z,73.50
2019-03-28T03:50:52.134Z,74.40
2019-03-28T03:53:20.823Z,75.30
2019-03-28T03:55:49.732Z,76.60
2019-03-28T03:58:18.893Z,77.50
2019-03-28T04:00:47.939Z,78.10
2019-03-28T04:03:16.942Z,78.10
2019-03-28T04:05:45.615Z,77.30
2019-03-28T04:08:14.445Z,76.50
2019-03-28T04:10:43.301Z,74.90
2019-03-28T04:13:11.994Z,75.80
2019-03-28T04:15:40.692Z,75.70
2019-03-28T04:18:09.547Z,74.10
2019-03-28T04:20:38.235Z,74.50
2019-03-28T04:23:12.082Z,74.70
2019-03-28T04:25:40.786Z,75.10
2019-03-28T04:28:09.478Z,76.50
2019-03-28T04:30:38.344Z,76.60
2019-03-28T04:33:07.018Z,76.20
2019-03-28T04:35:35.911Z,75.10
2019-03-28T04:38:04.820Z,75.40
2019-03-28T04:40:34.425Z,75.30
2019-03-28T04:43:03.635Z,74.90
2019-03-28T04:45:32.322Z,75.20
2019-03-28T04:48:01.523Z,74.70
2019-03-28T04:50:30.495Z,74.20
2019-03-28T04:52:59.211Z,74.50
2019-03-28T04:55:32.640Z,75.20
2019-03-28T04:58:01.420Z,74.80
2019-03-28T05:00:30.283Z,75.60
2019-03-28T05:02:58.977Z,76.10
2019-03-28T05:05:27.887Z,77.20
2019-03-28T05:07:56.583Z,78.50
2019-03-28T05:10:25.465Z,78.90
2019-03-28T05:12:54.156Z,79.10
2019-03-28T05:15:23.077Z,78.60
2019-03-28T05:17:52.053Z,79.10
2019-03-28T05:20:20.790Z,78.10
2019-03-28T05:22:49.475Z,77.10
2019-03-28T05:25:18.339Z,78.70
2019-03-28T05:27:48.999Z,78.80
2019-03-28T05:30:17.745Z,79.00
2019-03-28T05:32:46.528Z,78.80
2019-03-28T05:35:15.339Z,78.60
2019-03-28T05:37:44.017Z,78.80
2019-03-28T05:40:13.139Z,80.30
2019-03-28T05:42:41.871Z,79.40
2019-03-28T05:45:11.088Z,80.20
2019-03-28T05:47:39.917Z,79.50
2019-03-28T05:50:08.999Z,79.30
2019-03-28T05:52:37.696Z,78.20
2019-03-28T05:55:07.003Z,78.30
2019-03-28T05:57:35.707Z,77.90
2019-03-28T06:00:05.297Z,76.80
2019-03-28T06:02:34.335Z,76.30
2019-03-28T06:05:03.452Z,77.20
2019-03-28T06:07:32.296Z,77.20
2019-03-28T06:10:02.161Z,77.00
2019-03-28T06:12:30.890Z,76.80
2019-03-28T06:14:59.824Z,77.10
2019-03-28T06:17:28.677Z,75.50
2019-03-28T06:19:57.575Z,76.70
2019-03-28T06:22:26.242Z,75.10
2019-03-28T06:24:55.198Z,75.50
2019-03-28T06:27:24.008Z,75.70
2019-03-28T06:29:57.384Z,75.60
2019-03-28T06:32:26.115Z,75.40
2019-03-28T06:34:55.062Z,74.60
2019-03-28T06:37:23.797Z,74.60
2019-03-28T06:39:52.612Z,74.30
2019-03-28T06:42:21.438Z,73.60
2019-03-28T06:44:50.311Z,72.90
2019-03-28T06:47:21.053Z,71.90
2019-03-28T06:49:50.090Z,72.00
2019-03-28T06:52:18.801Z,71.70
2019-03-28T06:54:47.653Z,72.60
2019-03-28T06:57:18.859Z,72.10
2019-03-28T06:59:46.954Z,71.60
2019-03-28T07:02:15.861Z,71.30
2019-03-28T07:04:44.755Z,70.60
2019-03-28T07:07:13.456Z,68.90
2019-03-28T07:09:42.362Z,67.30
2019-03-28T07:12:11.049Z,66.50
2019-03-28T07:14:39.933Z,66.10
2019-03-28T07:17:08.724Z,64.50
2019-03-28T07:19:37.525Z,65.40
2019-03-28T07:22:06.222Z,63.70
2019-03-28T07:24:34.976Z,61.30
2019-03-28T07:27:03.803Z,61.40
2019-03-28T07:29:32.542Z,61.60
2019-03-28T07:32:01.270Z,59.90
2019-03-28T07:34:30.078Z,56.40
2019-03-28T07:36:58.767Z,56.00
2019-03-28T07:39:27.657Z,54.90
2019-03-28T07:41:56.650Z,53.30
2019-03-28T07:44:25.548Z,52.90
2019-03-28T07:46:54.261Z,52.00
2019-03-28T07:49:23.123Z,49.70
2019-03-28T07:51:51.830Z,51.10
2019-03-28T07:54:20.591Z,52.80
2019-03-28T07:56:49.523Z,53.40
2019-03-28T07:59:18.595Z,53.50
2019-03-28T08:01:47.310Z,54.80
2019-03-28T08:04:16.202Z,54.70
2019-03-28T08:06:50.145Z,53.30
2019-03-28T08:09:17.571Z,54.50
2019-03-28T08:11:48.272Z,53.90
2019-03-28T08:14:16.984Z,53.70
2019-03-28T08:16:45.680Z,53.70
2019-03-28T08:19:14.568Z,53.10
2019-03-28T08:21:43.259Z,52.70
2019-03-28T08:24:11.994Z,50.30
2019-03-28T08:26:40.822Z,49.60
2019-03-28T08:29:09.528Z,49.10
2019-03-28T08:31:40.967Z,48.10
2019-03-28T08:34:10.085Z,47.20
2019-03-28T08:36:39.016Z,47.50
2019-03-28T08:39:08.093Z,46.60
2019-03-28T08:41:36.754Z,47.60
2019-03-28T08:44:07.322Z,44.50
2019-03-28T08:46:36.305Z,45.20
2019-03-28T08:49:05.230Z,45.70
2019-03-28T08:51:34.131Z,45.10
2019-03-28T08:54:03.046Z,44.70
2019-03-28T08:56:31.887Z,44.40
2019-03-28T08:59:00.591Z,45.70
2019-03-28T09:01:31.262Z,44.40
2019-03-28T09:04:00.107Z,45.20
2019-03-28T09:06:30.819Z,45.30
2019-03-28T09:08:59.655Z,46.00
2019-03-28T09:11:28.522Z,43.90
2019-03-28T09:13:57.204Z,43.80
2019-03-28T09:16:25.945Z,43.10
2019-03-28T09:18:54.800Z,43.30
2019-03-28T09:21:23.594Z,43.60
2019-03-28T09:23:52.499Z,42.60
2019-03-28T09:26:21.331Z,42.20
2019-03-28T09:28:50.281Z,42.40
2019-03-28T09:31:20.439Z,42.20
2019-03-28T09:33:49.505Z,41.10
2019-03-28T09:36:18.174Z,40.10
2019-03-28T09:38:46.878Z,37.20
2019-03-28T09:41:15.873Z,36.90
2019-03-28T09:43:55.218Z,36.90
2019-03-28T09:46:15.409Z,36.90
2019-03-28T09:48:44.136Z,35.00
2019-03-28T09:51:12.829Z,35.30
2019-03-28T09:53:41.674Z,33.40
2019-03-28T09:56:10.579Z,32.20
2019-03-28T09:58:39.234Z,33.30
2019-03-28T10:01:08.156Z,33.10
2019-03-28T10:03:37.059Z,35.00
2019-03-28T10:06:05.803Z,35.00
2019-03-28T10:08:34.472Z,36.60
2019-03-28T10:11:03.444Z,37.40
2019-03-28T10:13:32.292Z,39.10
2019-03-28T10:16:01.154Z,39.90
2019-03-28T10:18:30.343Z,42.20
2019-03-28T10:20:59.321Z,41.60
2019-03-28T10:23:28.006Z,42.10
2019-03-28T10:25:57.106Z,42.40
2019-03-28T10:28:25.798Z,42.20
2019-03-28T10:30:54.666Z,41.50
2019-03-28T10:33:24.564Z,40.00
2019-03-28T10:35:53.401Z,40.10
2019-03-28T10:38:22.308Z,39.20
2019-03-28T10:40:51.198Z,38.90
2019-03-28T10:43:21.464Z,38.90
2019-03-28T10:45:51.391Z,38.60
2019-03-28T10:48:23.358Z,38.40
2019-03-28T10:50:51.073Z,40.10
2019-03-28T10:53:19.769Z,35.90
2019-03-28T10:55:48.611Z,38.20
2019-03-28T10:58:19.385Z,38.10
2019-03-28T11:00:48.232Z,39.70
2019-03-28T11:03:16.928Z,38.40
2019-03-28T11:05:45.765Z,38.10
2019-03-28T11:08:14.568Z,36.30
2019-03-28T11:10:43.271Z,36.40
2019-03-28T11:13:11.954Z,35.70
2019-03-28T11:15:40.839Z,36.20
2019-03-28T11:18:09.623Z,37.00
2019-03-28T11:20:40.072Z,36.50
2019-03-28T11:23:09.065Z,36.20
2019-03-28T11:25:37.737Z,35.90
2019-03-28T11:28:06.442Z,36.30
2019-03-28T11:30:35.516Z,37.00
2019-03-28T11:33:06.442Z,38.20
2019-03-28T11:35:35.005Z,37.00
2019-03-28T11:38:03.866Z,36.50
2019-03-28T11:40:32.759Z,36.60
2019-03-28T11:43:01.470Z,37.60
2019-03-28T11:45:34.962Z,37.10
2019-03-28T11:48:03.934Z,37.60
2019-03-28T11:50:32.635Z,38.40
2019-03-28T11:53:01.341Z,39.20
2019-03-28T11:55:30.217Z,39.90
2019-03-28T11:57:58.900Z,39.20
2019-03-28T12:00:27.903Z,38.20
2019-03-28T12:02:56.905Z,38.40
2019-03-28T12:05:25.789Z,38.90
2019-03-28T12:07:54.498Z,39.70
2019-03-28T12:10:23.205Z,37.50
2019-03-28T12:12:52.286Z,38.10
2019-03-28T12:15:20.986Z,38.40
2019-03-28T12:17:49.688Z,39.00
2019-03-28T12:20:18.552Z,36.60
2019-03-28T12:22:47.460Z,36.80
2019-03-28T12:25:16.153Z,37.80
2019-03-28T12:27:44.866Z,38.20
2019-03-28T12:30:16.229Z,38.40
2019-03-28T12:32:45.181Z,39.50
2019-03-28T12:35:13.898Z,38.60
2019-03-28T12:37:42.766Z,38.90
2019-03-28T12:40:12.693Z,39.00
2019-03-28T12:42:41.384Z,39.20
2019-03-28T12:45:12.259Z,38.30
2019-03-28T12:47:42.686Z,38.60
2019-03-28T12:50:12.888Z,37.10
2019-03-28T12:52:41.579Z,37.20
2019-03-28T12:55:10.687Z,35.50
2019-03-28T12:57:39.547Z,37.10
2019-03-28T13:00:09.271Z,36.80
2019-03-28T13:02:37.945Z,35.70
2019-03-28T13:05:08.264Z,36.30
2019-03-28T13:07:37.164Z,36.90
2019-03-28T13:10:07.272Z,36.30
2019-03-28T13:12:35.979Z,36.80
2019-03-28T13:15:06.564Z,36.50
2019-03-28T13:17:35.626Z,37.20
2019-03-28T13:20:05.788Z,37.20
2019-03-28T13:22:34.689Z,36.50
2019-03-28T13:25:03.981Z,37.60
2019-03-28T13:27:34.630Z,36.20
2019-03-28T13:30:04.489Z,35.90
2019-03-28T13:32:41.571Z,36.30
2019-03-28T13:35:04.755Z,34.70
2019-03-28T13:37:33.582Z,36.50
2019-03-28T13:40:02.389Z,36.90
2019-03-28T13:42:31.165Z,36.90
2019-03-28T13:45:00.151Z,35.80
2019-03-28T13:47:29.110Z,36.00
2019-03-28T13:49:58.115Z,36.00
2019-03-28T13:52:26.966Z,36.20
2019-03-28T13:54:55.648Z,37.50
2019-03-28T13:57:24.329Z,37.10
2019-03-28T13:59:53.142Z,36.50
2019-03-28T14:02:21.797Z,37.90
2019-03-28T14:04:50.480Z,40.80
2019-03-28T14:07:19.363Z,42.70
2019-03-28T14:09:48.310Z,44.60
2019-03-28T14:12:16.976Z,46.50
2019-03-28T14:14:45.783Z,47.10
2019-03-28T14:17:14.478Z,46.50
2019-03-28T14:19:43.265Z,48.80
2019-03-28T14:22:11.974Z,49.00
2019-03-28T14:24:43.458Z,48.00
2019-03-28T14:27:12.296Z,49.20
2019-03-28T14:29:41.002Z,50.70
2019-03-28T14:32:09.678Z,50.40
2019-03-28T14:34:39.954Z,51.70
2019-03-28T14:37:08.794Z,51.90
2019-03-28T14:39:37.482Z,50.90
2019-03-28T14:42:06.636Z,50.80
2019-03-28T14:44:35.302Z,51.40
2019-03-28T14:47:05.303Z,51.10
2019-03-28T14:49:34.252Z,51.00
2019-03-28T14:52:04.136Z,50.80
2019-03-28T14:54:33.235Z,49.80
2019-03-28T14:57:02.845Z,47.60
2019-03-28T14:59:34.607Z,48.70
2019-03-28T15:02:03.700Z,48.40
2019-03-28T15:04:32.516Z,46.50
2019-03-28T15:07:03.040Z,45.70
2019-03-28T15:09:33.326Z,45.20
2019-03-28T15:12:02.153Z,47.30
2019-03-28T15:14:30.863Z,46.60
2019-03-28T15:17:00.782Z,45.10
2019-03-28T15:19:29.642Z,46.30
2019-03-28T15:21:58.430Z,45.10
2019-03-28T15:24:27.339Z,45.60
2019-03-28T15:26:55.999Z,44.60
2019-03-28T15:29:24.935Z,45.30
2019-03-28T15:31:53.599Z,45.50
2019-03-28T15:34:22.287Z,44.00
2019-03-28T15:36:51.410Z,44.90
2019-03-28T15:39:21.829Z,44.60
2019-03-28T15:41:50.501Z,44.10
2019-03-28T15:44:19.184Z,43.80
2019-03-28T15:46:48.105Z,42.90
2019-03-28T15:49:16.897Z,43.50
2019-03-28T15:51:45.619Z,43.20
2019-03-28T15:54:14.487Z,43.40
2019-03-28T15:56:43.201Z,42.20
2019-03-28T15:59:16.208Z,42.40
2019-03-28T16:01:45.233Z,41.60
2019-03-28T16:04:14.110Z,42.00
2019-03-28T16:06:45.868Z,42.80
2019-03-28T16:09:18.103Z,42.40
2019-03-28T16:11:45.317Z,42.00
2019-03-28T16:14:14.124Z,42.70
2019-03-28T16:16:42.968Z,42.60
2019-03-28T16:19:11.667Z,42.80
2019-03-28T16:21:40.503Z,41.30
2019-03-28T16:24:09.229Z,41.50
2019-03-28T16:26:37.921Z,41.40
2019-03-28T16:29:08.107Z,41.90
2019-03-28T16:31:36.813Z,42.20
2019-03-28T16:34:07.228Z,42.70
2019-03-28T16:36:36.238Z,43.00
2019-03-28T16:39:06.723Z,43.40
2019-03-28T16:41:35.576Z,42.70
2019-03-28T16:44:04.662Z,42.70
2019-03-28T16:46:33.386Z,42.10
2019-03-28T16:49:04.010Z,43.60
2019-03-28T16:51:32.895Z,43.70
2019-03-28T16:54:02.715Z,44.40
2019-03-28T16:56:31.400Z,43.90
2019-03-28T16:59:00.286Z,44.40
2019-03-28T17:01:29.294Z,43.90
2019-03-28T17:03:58.175Z,44.60
2019-03-28T17:06:27.179Z,45.60
2019-03-28T17:08:57.206Z,46.30
2019-03-28T17:11:27.227Z,46.70
2019-03-28T17:13:55.916Z,46.40
2019-03-28T17:16:24.605Z,47.40
2019-03-28T17:18:53.500Z,49.10
2019-03-28T17:21:23.419Z,49.30
2019-03-28T17:23:52.350Z,48.90
2019-03-28T17:26:21.287Z,49.80
2019-03-28T17:28:49.975Z,49.70
2019-03-28T17:31:18.988Z,49.60
2019-03-28T17:33:47.971Z,49.70
2019-03-28T17:36:16.638Z,49.20
2019-03-28T17:38:46.576Z,50.60
2019-03-28T17:41:15.578Z,50.60
2019-03-28T17:43:44.408Z,50.30
2019-03-28T17:46:13.347Z,50.30
2019-03-28T17:48:42.043Z,50.60
2019-03-28T17:51:10.959Z,50.90
2019-03-28T17:53:39.855Z,50.80
2019-03-28T17:56:08.750Z,50.50
2019-03-28T17:58:37.453Z,51.70
2019-03-28T18:01:07.068Z,52.30
2019-03-28T18:03:35.941Z,51.90
2019-03-28T18:06:04.692Z,52.60
2019-03-28T18:08:33.415Z,53.40
2019-03-28T18:11:04.278Z,53.70
2019-03-28T18:13:33.175Z,53.30
2019-03-28T18:16:02.734Z,55.30
2019-03-28T18:18:31.954Z,55.60
2019-03-28T18:21:02.340Z,56.00
2019-03-28T18:23:32.812Z,56.80
2019-03-28T18:26:01.819Z,56.60
2019-03-28T18:28:31.670Z,57.30
2019-03-28T18:31:00.594Z,57.30
2019-03-28T18:33:29.458Z,58.00
2019-03-28T18:35:58.114Z,58.50
2019-03-28T18:38:27.059Z,59.00
2019-03-28T18:40:58.474Z,58.80
2019-03-28T18:43:27.625Z,60.80
2019-03-28T18:45:56.525Z,63.10
2019-03-28T18:48:29.534Z,63.50
2019-03-28T18:50:56.653Z,63.40
2019-03-28T18:53:25.451Z,63.40
2019-03-28T18:55:55.169Z,64.00
2019-03-28T18:58:25.711Z,64.80
2019-03-28T19:00:54.853Z,66.90
2019-03-28T19:03:23.753Z,69.20
2019-03-28T19:05:52.746Z,70.30
2019-03-28T19:08:21.444Z,68.90
2019-03-28T19:10:51.570Z,70.80
2019-03-28T19:13:20.411Z,70.00
2019-03-28T19:15:49.812Z,70.90
2019-03-28T19:18:18.949Z,70.60
2019-03-28T19:20:47.740Z,69.70
2019-03-28T19:23:16.549Z,69.90
2019-03-28T19:25:47.098Z,70.50
2019-03-28T19:28:28.229Z,71.00
2019-03-28T19:30:46.691Z,72.00
2019-03-28T19:33:16.635Z,72.50
2019-03-28T19:35:47.757Z,72.90
2019-03-28T19:38:17.000Z,73.50
2019-03-28T19:40:46.101Z,74.10
2019-03-28T19:43:20.802Z,74.00
2019-03-28T19:45:45.560Z,73.90
2019-03-28T19:48:14.613Z,73.80
2019-03-28T19:50:43.311Z,74.60
2019-03-28T19:53:12.398Z,74.40
2019-03-28T19:55:41.135Z,75.50
2019-03-28T19:58:13.743Z,74.50
2019-03-28T20:00:43.845Z,74.80
2019-03-28T20:03:13.152Z,75.50
2019-03-28T20:05:47.977Z,76.30
2019-03-28T20:08:15.809Z,76.60
2019-03-28T20:10:43.410Z,76.10
2019-03-28T20:13:12.259Z,76.70
2019-03-28T20:15:43.486Z,76.90
2019-03-28T20:18:13.465Z,78.30
2019-03-28T20:20:42.315Z,78.50
2019-03-28T20:23:11.037Z,78.90
2019-03-28T20:25:42.647Z,79.70
2019-03-28T20:28:10.455Z,81.00
2019-03-28T20:30:39.436Z,81.00
2019-03-28T20:33:08.643Z,80.70
2019-03-28T20:35:37.520Z,80.20
2019-03-28T20:38:06.219Z,80.00
2019-03-28T20:40:35.111Z,81.40
2019-03-28T20:43:03.776Z,81.70
2019-03-28T20:45:32.479Z,81.40
2019-03-28T20:48:01.393Z,81.00
2019-03-28T20:50:31.858Z,81.20
2019-03-28T20:53:03.970Z,81.50
2019-03-28T20:55:34.248Z,81.80
2019-03-28T20:58:03.132Z,81.50
2019-03-28T21:00:41.631Z,82.10
2019-03-28T21:03:10.417Z,84.90
2019-03-28T21:05:39.492Z,85.10
2019-03-28T21:08:08.388Z,85.00
2019-03-28T21:10:37.330Z,85.40
2019-03-28T21:13:06.190Z,87.20
2019-03-28T21:15:34.905Z,87.50
2019-03-28T21:18:07.370Z,87.00
2019-03-28T21:20:36.782Z,86.30
2019-03-28T21:23:05.659Z,86.90
2019-03-28T21:25:34.541Z,86.10
2019-03-28T21:28:03.449Z,87.90
2019-03-28T21:30:32.341Z,88.80
2019-03-28T21:33:01.063Z,88.40
2019-03-28T21:35:29.739Z,87.90
2019-03-28T21:37:58.610Z,87.80
2019-03-28T21:40:27.749Z,87.50
2019-03-28T21:42:56.796Z,87.30
2019-03-28T21:45:25.518Z,86.90
2019-03-28T21:47:55.323Z,87.70
2019-03-28T21:50:25.302Z,88.90
2019-03-28T21:52:55.910Z,89.20
2019-03-28T21:55:26.605Z,88.90
2019-03-28T21:57:55.724Z,89.70
2019-03-28T22:00:24.584Z,89.90
2019-03-28T22:02:53.279Z,90.00
2019-03-28T22:05:22.068Z,90.20
2019-03-28T22:07:50.778Z,90.30
2019-03-28T22:10:19.658Z,90.30
2019-03-28T22:12:48.417Z,90.10
2019-03-28T22:15:17.311Z,90.20
2019-03-28T22:17:46.254Z,90.30
2019-03-28T22:20:15.168Z,91.50
2019-03-28T22:22:43.837Z,91.60
2019-03-28T22:25:12.931Z,91.20
2019-03-28T22:27:41.618Z,90.70
2019-03-28T22:30:10.968Z,90.70
2019-03-28T22:32:39.810Z,90.60
2019-03-28T22:35:08.990Z,90.50
2019-03-28T22:37:38.070Z,90.80
2019-03-28T22:40:07.745Z,90.70
2019-03-28T22:42:36.673Z,90.70
2019-03-28T22:45:07.330Z,90.70
2019-03-28T22:47:36.132Z,90.60
2019-03-28T22:50:05.973Z,90.30
2019-03-28T22:52:36.228Z,90.70
2019-03-28T22:55:06.313Z,90.50
2019-03-28T22:57:38.077Z,90.40
2019-03-28T23:00:08.772Z,90.90
2019-03-28T23:02:37.627Z,90.90
2019-03-28T23:05:08.344Z,90.70
2019-03-28T23:07:37.242Z,90.70
2019-03-28T23:10:09.263Z,90.40
2019-03-28T23:12:38.092Z,90.10
2019-03-28T23:15:07.757Z,89.90
2019-03-28T23:17:36.670Z,89.70
2019-03-28T23:20:07.099Z,89.40
2019-03-28T23:22:35.769Z,90.10
2019-03-28T23:25:05.514Z,90.20
2019-03-28T23:27:34.239Z,90.30
2019-03-28T23:30:03.289Z,90.50
2019-03-28T23:32:33.397Z,90.60
2019-03-28T23:35:02.242Z,90.60
2019-03-28T23:37:30.958Z,90.90
2019-03-28T23:39:59.794Z,90.70
2019-03-28T23:42:28.483Z,91.10
2019-03-28T23:44:57.126Z,91.20
2019-03-28T23:47:26.015Z,91.50
2019-03-28T23:49:54.724Z,91.30
2019-03-28T23:52:23.364Z,91.20
2019-03-28T23:54:52.805Z,91.30
2019-03-28T23:57:21.558Z,91.70
2019-03-28T23:59:50.221Z,91.60
